Time;durP1;ratioP1;P1;durP2;ratioP2;P2;SDS_P1;SDS_P2;PMS_P1;PMS_P2;Temp;Humidity;BMP_temperature;BMP_pressure;BME280_temperature;BME280_humidity;BME280_pressure;Samples;Min_cycle;Max_cycle;Signal;HPM_P1;HPM_P2
2022/01/05 00:01:59;;;;;;;2.25;1.20;;;8.30;83.20;;;;;;4992034;28;20299;-72
2022/01/05 00:04:29;;;;;;;2.25;1.30;;;8.30;83.20;;;;;;4992598;28;20211;-73
2022/01/05 00:06:57;;;;;;;2.40;1.20;;;8.30;83.30;;;;;;4994169;28;20682;-72
2022/01/05 00:09:25;;;;;;;2.00;0.90;;;8.30;83.30;;;;;;4993715;28;20225;-73
2022/01/05 00:11:53;;;;;;;2.00;1.00;;;8.40;83.30;;;;;;4993717;28;20247;-73
2022/01/05 00:14:20;;;;;;;2.38;1.23;;;8.30;83.20;;;;;;4993182;28;20208;-73
2022/01/05 00:16:49;;;;;;;3.97;1.30;;;8.30;83.20;;;;;;5002856;28;20248;-72
2022/01/05 00:19:17;;;;;;;2.60;1.27;;;8.30;83.20;;;;;;4997433;28;20950;-74
2022/01/05 00:21:48;;;;;;;3.83;1.77;;;8.30;83.20;;;;;;4999147;28;20250;-73
2022/01/05 00:24:16;;;;;;;2.40;1.55;;;8.30;83.30;;;;;;4997898;28;20220;-72
2022/01/05 00:26:43;;;;;;;2.58;1.38;;;8.30;83.30;;;;;;4999396;28;20202;-73
2022/01/05 00:29:11;;;;;;;5.60;1.40;;;8.30;83.40;;;;;;4994936;28;20277;-73
2022/01/05 00:31:40;;;;;;;2.55;1.50;;;8.30;83.40;;;;;;4996380;28;20484;-73
2022/01/05 00:34:08;;;;;;;2.40;1.33;;;8.30;83.40;;;;;;4995841;28;20664;-73
2022/01/05 00:36:37;;;;;;;2.47;1.45;;;8.30;83.40;;;;;;4982791;28;20452;-73
2022/01/05 00:39:06;;;;;;;2.55;1.30;;;8.30;83.40;;;;;;4997433;28;20756;-72
2022/01/05 00:41:34;;;;;;;2.60;1.50;;;8.30;83.40;;;;;;4998123;28;20195;-73
2022/01/05 00:44:03;;;;;;;2.63;1.20;;;8.20;83.20;;;;;;4983567;28;20213;-73
2022/01/05 00:46:31;;;;;;;2.15;1.20;;;8.20;83.60;;;;;;4995839;28;20692;-72
2022/01/05 00:48:59;;;;;;;2.45;1.25;;;8.20;83.60;;;;;;4998690;28;20236;-71
2022/01/05 00:51:27;;;;;;;2.60;1.52;;;8.20;83.70;;;;;;4985893;28;20600;-72
2022/01/05 00:53:55;;;;;;;2.38;1.20;;;8.30;83.70;;;;;;4998072;28;20204;-73
2022/01/05 00:56:24;;;;;;;2.45;1.10;;;8.30;83.60;;;;;;4997758;28;20660;-73
2022/01/05 00:58:52;;;;;;;2.10;1.08;;;8.30;83.60;;;;;;5001382;28;20205;-72
2022/01/05 01:01:20;;;;;;;2.35;1.30;;;8.30;83.30;;;;;;4999959;28;20250;-73
2022/01/05 01:03:48;;;;;;;2.70;1.00;;;8.30;83.40;;;;;;4997453;28;20686;-72
2022/01/05 01:06:17;;;;;;;2.40;1.30;;;8.30;83.40;;;;;;4993975;28;20197;-74
2022/01/05 01:08:45;;;;;;;2.53;1.25;;;8.30;83.30;;;;;;4997168;28;20683;-73
2022/01/05 01:11:12;;;;;;;3.40;1.30;;;8.30;83.30;;;;;;4999190;28;20203;-72
2022/01/05 01:13:43;;;;;;;2.72;1.30;;;8.20;83.30;;;;;;4980445;28;20312;-73
2022/01/05 01:16:11;;;;;;;2.22;1.10;;;8.20;83.40;;;;;;5001124;28;20450;-74
2022/01/05 01:18:40;;;;;;;3.97;1.03;;;8.20;83.40;;;;;;4999944;28;20201;-73
2022/01/05 01:21:08;;;;;;;2.28;1.17;;;8.30;83.40;;;;;;4982044;28;20516;-73
2022/01/05 01:23:37;;;;;;;2.67;1.23;;;8.30;83.60;;;;;;4995140;28;20208;-73
2022/01/05 01:26:05;;;;;;;3.47;1.40;;;8.30;83.60;;;;;;4994607;28;20219;-73
2022/01/05 01:28:33;;;;;;;5.13;1.83;;;8.30;83.40;;;;;;4998136;28;20646;-73
2022/01/05 01:31:02;;;;;;;2.85;1.35;;;8.30;83.40;;;;;;4991348;28;20228;-72
2022/01/05 01:33:30;;;;;;;2.30;1.27;;;8.30;83.40;;;;;;4997224;28;20635;-72
2022/01/05 01:35:58;;;;;;;2.70;1.60;;;8.30;83.60;;;;;;5001474;28;20236;-74
2022/01/05 01:38:26;;;;;;;3.95;1.52;;;8.30;83.40;;;;;;4988616;28;20690;-72
2022/01/05 01:40:55;;;;;;;2.50;1.80;;;8.30;83.40;;;;;;4995482;28;20715;-73
2022/01/05 01:43:22;;;;;;;5.70;1.67;;;8.30;83.40;;;;;;4993621;28;21044;-73
2022/01/05 01:45:50;;;;;;;3.50;1.60;;;8.30;83.40;;;;;;4995826;28;20815;-73
2022/01/05 01:48:20;;;;;;;3.65;2.20;;;8.30;83.60;;;;;;4998038;28;20205;-71
2022/01/05 01:50:48;;;;;;;3.22;2.00;;;8.30;83.60;;;;;;4995256;28;20962;-74
2022/01/05 01:53:16;;;;;;;2.97;2.10;;;8.30;83.60;;;;;;4994948;28;20236;-73
2022/01/05 01:55:44;;;;;;;3.00;1.80;;;8.30;83.70;;;;;;4984667;28;20459;-74
2022/01/05 01:58:12;;;;;;;3.28;2.38;;;8.30;83.60;;;;;;4998013;28;20735;-74
2022/01/05 02:00:40;;;;;;;3.00;2.17;;;8.30;83.60;;;;;;4998604;28;20284;-73
2022/01/05 02:03:08;;;;;;;2.70;1.83;;;8.30;83.60;;;;;;4991832;28;20340;-74
2022/01/05 02:05:38;;;;;;;3.17;1.80;;;8.30;83.60;;;;;;4982279;28;20205;-73
2022/01/05 02:08:06;;;;;;;3.40;1.67;;;8.20;83.70;;;;;;4993463;28;20726;-73
2022/01/05 02:10:34;;;;;;;2.92;1.58;;;8.20;83.70;;;;;;4983248;28;20287;-73
2022/01/05 02:13:02;;;;;;;3.15;1.60;;;8.30;83.80;;;;;;4996584;28;20791;-73
2022/01/05 02:15:30;;;;;;;3.60;1.77;;;8.30;83.80;;;;;;4993767;28;20240;-72
2022/01/05 02:18:10;;;;;;;2.30;1.20;;;8.30;83.80;;;;;;4991495;28;20206;-72
2022/01/05 02:20:39;;;;;;;3.50;1.65;;;8.30;83.80;;;;;;4994602;28;20224;-72
2022/01/05 02:23:08;;;;;;;3.30;1.60;;;8.30;83.70;;;;;;4979307;28;20216;-73
2022/01/05 02:25:36;;;;;;;2.20;1.30;;;8.30;83.80;;;;;;4994713;28;20242;-72
2022/01/05 02:28:04;;;;;;;2.40;1.40;;;8.30;83.70;;;;;;4996282;28;20195;-72
2022/01/05 02:30:33;;;;;;;2.90;1.25;;;8.30;83.70;;;;;;4981262;28;20247;-73
2022/01/05 02:33:01;;;;;;;2.70;1.40;;;8.30;83.70;;;;;;4994794;28;20312;-72
2022/01/05 02:35:29;;;;;;;3.20;1.20;;;8.30;83.70;;;;;;4996235;28;20235;-72
2022/01/05 02:37:57;;;;;;;2.10;1.08;;;8.30;83.70;;;;;;4993869;28;20240;-72
2022/01/05 02:40:26;;;;;;;2.10;0.90;;;8.30;83.70;;;;;;4995805;28;20226;-72
2022/01/05 02:42:56;;;;;;;2.17;1.00;;;8.20;83.70;;;;;;4997087;28;20229;-72
2022/01/05 02:45:25;;;;;;;2.00;0.90;;;8.20;83.70;;;;;;4992997;28;20961;-72
2022/01/05 02:47:53;;;;;;;2.25;1.10;;;8.20;83.80;;;;;;4990864;28;20213;-72
2022/01/05 02:50:21;;;;;;;2.88;1.00;;;8.20;83.80;;;;;;4991607;28;20738;-72
2022/01/05 02:52:49;;;;;;;2.00;0.90;;;8.20;83.70;;;;;;4995080;28;20225;-72
2022/01/05 02:55:17;;;;;;;2.50;1.00;;;8.20;83.70;;;;;;4993165;28;20206;-73
2022/01/05 02:57:46;;;;;;;1.90;0.85;;;8.20;83.80;;;;;;4982649;28;20669;-72
2022/01/05 03:00:16;;;;;;;2.30;1.00;;;8.20;83.90;;;;;;4996303;28;20236;-72
2022/01/05 03:02:44;;;;;;;1.80;0.70;;;8.20;83.80;;;;;;4995382;28;20706;-72
2022/01/05 03:05:12;;;;;;;2.38;1.00;;;8.20;83.90;;;;;;4994746;28;20209;-72
2022/01/05 03:07:41;;;;;;;1.92;0.88;;;8.20;83.90;;;;;;4995229;28;20216;-72
2022/01/05 03:10:11;;;;;;;2.28;0.90;;;8.20;83.90;;;;;;4994755;28;20228;-72
2022/01/05 03:12:41;;;;;;;1.90;0.75;;;8.30;83.90;;;;;;4993518;28;20204;-72
2022/01/05 03:15:11;;;;;;;2.15;0.80;;;8.30;83.80;;;;;;4992121;28;20223;-72
2022/01/05 03:17:40;;;;;;;2.10;0.75;;;8.30;83.90;;;;;;4993966;28;20200;-73
2022/01/05 03:20:10;;;;;;;2.28;0.93;;;8.30;83.80;;;;;;5000896;28;20241;-72
2022/01/05 03:22:39;;;;;;;2.05;0.80;;;8.30;83.80;;;;;;4997839;28;20198;-72
2022/01/05 03:25:15;;;;;;;2.22;1.02;;;8.30;83.90;;;;;;4997020;28;20366;-73
2022/01/05 03:27:44;;;;;;;1.90;0.80;;;8.30;83.70;;;;;;4994437;28;20264;-72
2022/01/05 03:30:16;;;;;;;1.80;0.73;;;8.30;83.60;;;;;;4992561;28;20220;-73
2022/01/05 03:33:05;;;;;;;3.97;1.38;;;8.30;83.70;;;;;;4995394;28;20201;-73
2022/01/05 03:35:36;;;;;;;1.80;0.70;;;8.30;83.70;;;;;;4997604;28;20208;-72
2022/01/05 03:38:05;;;;;;;3.10;1.08;;;8.30;83.60;;;;;;4998994;28;20215;-73
2022/01/05 03:40:34;;;;;;;2.15;0.88;;;8.20;83.60;;;;;;4995693;28;20229;-73
2022/01/05 03:43:04;;;;;;;2.58;0.80;;;8.20;83.70;;;;;;4998359;28;20616;-73
2022/01/05 03:45:35;;;;;;;2.00;0.85;;;8.20;83.80;;;;;;4996150;28;20236;-73
2022/01/05 03:48:04;;;;;;;2.05;0.85;;;8.20;83.70;;;;;;4995044;28;20268;-73
2022/01/05 03:50:32;;;;;;;2.22;1.00;;;8.20;83.80;;;;;;4999853;28;20342;-75
2022/01/05 03:53:00;;;;;;;2.40;0.88;;;8.20;83.70;;;;;;4981833;28;20569;-73
2022/01/05 03:55:28;;;;;;;2.15;0.70;;;8.30;83.70;;;;;;5000481;28;20212;-72
2022/01/05 03:57:56;;;;;;;1.98;0.80;;;8.20;83.60;;;;;;4999211;28;20209;-73
2022/01/05 04:00:26;;;;;;;4.10;0.80;;;8.20;83.70;;;;;;4997584;28;20228;-72
2022/01/05 04:02:56;;;;;;;1.80;0.60;;;8.20;83.70;;;;;;4995517;28;20279;-72
2022/01/05 04:05:24;;;;;;;1.85;0.70;;;8.30;83.90;;;;;;4996590;28;20213;-72
2022/01/05 04:07:52;;;;;;;1.90;0.70;;;8.30;83.90;;;;;;4993237;28;20217;-72
2022/01/05 04:10:20;;;;;;;2.72;0.90;;;8.30;83.80;;;;;;5000150;28;20231;-72
2022/01/05 04:12:48;;;;;;;2.13;0.88;;;8.30;83.70;;;;;;4992245;28;20212;-72
2022/01/05 04:15:16;;;;;;;2.45;0.70;;;8.30;83.70;;;;;;4989690;28;20208;-74
2022/01/05 04:17:45;;;;;;;2.00;0.70;;;8.30;83.70;;;;;;4993749;28;20195;-74
2022/01/05 04:20:15;;;;;;;1.70;0.52;;;8.30;83.60;;;;;;4997912;28;20280;-73
2022/01/05 04:22:44;;;;;;;2.25;0.77;;;8.30;83.70;;;;;;4997392;28;20201;-72
2022/01/05 04:25:13;;;;;;;3.05;1.40;;;8.30;83.70;;;;;;4998728;28;20214;-72
2022/01/05 04:27:41;;;;;;;2.22;1.00;;;8.30;83.40;;;;;;5001376;28;20219;-73
2022/01/05 04:30:11;;;;;;;1.80;0.70;;;8.30;83.40;;;;;;4992366;28;20233;-73
2022/01/05 04:32:40;;;;;;;1.98;0.70;;;8.30;83.20;;;;;;4981912;28;20209;-72
2022/01/05 04:35:29;;;;;;;2.00;0.60;;;8.20;83.00;;;;;;4993688;28;20244;-74
2022/01/05 04:37:57;;;;;;;3.78;0.63;;;8.00;81.50;;;;;;4995330;28;20221;-74
2022/01/05 04:40:25;;;;;;;2.40;0.60;;;7.70;81.80;;;;;;4994983;28;20235;-73
2022/01/05 04:42:53;;;;;;;1.80;0.60;;;7.50;82.00;;;;;;4997219;28;20718;-73
2022/01/05 04:45:21;;;;;;;2.13;0.70;;;7.40;82.00;;;;;;4996789;28;20262;-73
2022/01/05 04:47:49;;;;;;;2.20;0.60;;;7.30;82.20;;;;;;4994328;28;20277;-73
2022/01/05 04:50:18;;;;;;;2.80;0.73;;;7.10;80.60;;;;;;4993621;28;20231;-73
2022/01/05 04:52:47;;;;;;;2.30;0.80;;;6.90;81.00;;;;;;4994715;28;20208;-72
2022/01/05 04:55:15;;;;;;;1.98;0.70;;;6.80;81.90;;;;;;4995308;28;20223;-73
2022/01/05 04:57:43;;;;;;;2.30;0.77;;;6.70;81.30;;;;;;4997149;28;20206;-73
2022/01/05 05:00:11;;;;;;;2.10;0.75;;;6.60;81.30;;;;;;4999903;28;20230;-73
2022/01/05 05:02:39;;;;;;;2.08;0.70;;;6.60;82.10;;;;;;4997777;28;20207;-73
2022/01/05 05:05:08;;;;;;;2.75;0.80;;;6.60;82.40;;;;;;4983677;28;20346;-73
2022/01/05 05:07:36;;;;;;;4.35;1.10;;;6.70;82.50;;;;;;4981872;28;20235;-72
2022/01/05 05:10:06;;;;;;;2.00;0.60;;;6.70;82.20;;;;;;4988815;28;20226;-73
2022/01/05 05:12:34;;;;;;;5.72;0.73;;;6.60;82.10;;;;;;4979733;28;20625;-73
2022/01/05 05:15:02;;;;;;;2.10;0.70;;;6.70;82.50;;;;;;5000427;28;20292;-73
2022/01/05 05:17:30;;;;;;;2.10;0.70;;;6.70;82.50;;;;;;5004321;28;20229;-72
2022/01/05 05:19:58;;;;;;;2.10;0.90;;;6.80;82.20;;;;;;5007868;28;20225;-73
2022/01/05 05:22:26;;;;;;;3.35;0.80;;;6.70;82.10;;;;;;4991878;28;20254;-73
2022/01/05 05:24:54;;;;;;;3.70;0.88;;;6.70;82.20;;;;;;4999797;28;20260;-73
2022/01/05 05:27:23;;;;;;;2.35;0.80;;;6.70;82.20;;;;;;5002193;28;20199;-73
2022/01/05 05:29:52;;;;;;;2.78;0.90;;;6.70;82.50;;;;;;5006807;28;20310;-73
2022/01/05 05:32:20;;;;;;;2.70;1.00;;;6.70;82.30;;;;;;5019154;28;20226;-73
2022/01/05 05:34:48;;;;;;;5.28;0.90;;;6.70;82.00;;;;;;5021395;28;20215;-74
2022/01/05 05:37:16;;;;;;;2.97;1.13;;;6.80;82.30;;;;;;5022199;28;20216;-73
2022/01/05 05:39:45;;;;;;;2.90;1.10;;;6.80;81.30;;;;;;5022898;28;20225;-73
2022/01/05 05:42:13;;;;;;;4.03;1.38;;;6.70;81.50;;;;;;5006239;28;20210;-74
2022/01/05 05:44:42;;;;;;;6.13;2.45;;;6.70;81.90;;;;;;5023044;28;20505;-73
2022/01/05 05:47:10;;;;;;;3.00;1.10;;;6.70;81.30;;;;;;5020383;28;20229;-73
2022/01/05 05:49:38;;;;;;;6.53;1.10;;;6.60;81.20;;;;;;5017060;28;20742;-73
2022/01/05 05:52:07;;;;;;;5.20;1.30;;;6.50;80.60;;;;;;5021423;28;20851;-73
2022/01/05 05:54:35;;;;;;;3.25;1.23;;;6.40;80.60;;;;;;5020043;28;20208;-73
2022/01/05 05:57:04;;;;;;;3.65;1.40;;;6.30;80.20;;;;;;5018900;28;20194;-73
2022/01/05 05:59:32;;;;;;;3.97;1.65;;;6.20;79.90;;;;;;5016481;28;20277;-73
2022/01/05 06:02:01;;;;;;;4.20;1.52;;;6.10;80.60;;;;;;4998536;28;20245;-73
2022/01/05 06:04:30;;;;;;;5.20;1.50;;;6.10;80.60;;;;;;5019911;28;20197;-74
2022/01/05 06:06:59;;;;;;;3.90;1.30;;;6.10;81.20;;;;;;5022453;28;20229;-74
2022/01/05 06:09:27;;;;;;;5.93;2.30;;;6.10;81.20;;;;;;5005151;28;20233;-71
2022/01/05 06:11:55;;;;;;;4.75;1.88;;;6.10;81.20;;;;;;5018679;28;20699;-73
2022/01/05 06:14:29;;;;;;;4.53;2.03;;;6.10;80.60;;;;;;5023440;28;20217;-75
2022/01/05 06:17:02;;;;;;;4.57;1.60;;;6.00;80.60;;;;;;5025660;28;20228;-75
2022/01/05 06:19:32;;;;;;;4.90;1.83;;;5.90;80.60;;;;;;5022558;28;20803;-74
2022/01/05 06:22:00;;;;;;;6.68;1.42;;;5.80;79.80;;;;;;5021751;28;20218;-73
2022/01/05 06:24:27;;;;;;;3.28;1.50;;;5.70;80.30;;;;;;5021632;28;20200;-74
2022/01/05 06:26:56;;;;;;;5.97;1.67;;;5.60;80.50;;;;;;5023897;28;20208;-74
2022/01/05 06:29:24;;;;;;;4.47;1.90;;;5.50;81.00;;;;;;5022129;28;20225;-75
2022/01/05 06:31:51;;;;;;;4.50;1.90;;;5.50;81.10;;;;;;5024663;28;20234;-76
2022/01/05 06:34:21;;;;;;;4.05;1.80;;;5.60;81.30;;;;;;5025891;28;20197;-76
2022/01/05 06:36:49;;;;;;;5.60;2.67;;;5.60;81.00;;;;;;5023259;28;20197;-76
2022/01/05 06:39:17;;;;;;;8.60;2.65;;;5.60;81.50;;;;;;5002101;28;20236;-75
2022/01/05 06:41:45;;;;;;;7.75;2.88;;;5.60;81.40;;;;;;5004078;28;20213;-74
2022/01/05 06:44:13;;;;;;;4.93;3.00;;;5.70;81.30;;;;;;5022547;28;20240;-73
2022/01/05 06:46:41;;;;;;;6.68;2.80;;;5.70;81.20;;;;;;5009712;28;20237;-72
2022/01/05 06:49:09;;;;;;;5.20;2.90;;;5.70;81.30;;;;;;5018393;28;20229;-72
2022/01/05 06:51:38;;;;;;;7.20;3.75;;;5.80;81.40;;;;;;5020207;28;20208;-72
2022/01/05 06:54:06;;;;;;;8.73;3.92;;;5.80;81.40;;;;;;5022718;28;20193;-73
2022/01/05 06:56:35;;;;;;;5.97;3.63;;;5.80;81.20;;;;;;5026618;28;20263;-73
2022/01/05 06:59:03;;;;;;;7.32;3.72;;;5.80;80.90;;;;;;5008243;28;20756;-75
2022/01/05 07:01:31;;;;;;;8.27;4.80;;;5.80;81.30;;;;;;5001007;28;20234;-75
2022/01/05 07:03:59;;;;;;;7.95;3.95;;;5.90;81.30;;;;;;5023084;28;20282;-74
2022/01/05 07:06:27;;;;;;;6.28;3.70;;;5.90;81.20;;;;;;5022922;28;20193;-75
2022/01/05 07:08:56;;;;;;;12.50;4.35;;;6.00;81.10;;;;;;5007674;28;20280;-77
2022/01/05 07:11:24;;;;;;;8.25;3.55;;;5.90;80.50;;;;;;5023114;28;20204;-79
2022/01/05 07:13:52;;;;;;;7.18;3.65;;;5.90;80.80;;;;;;5004136;28;20197;-72
2022/01/05 07:16:20;;;;;;;8.10;3.88;;;5.90;80.90;;;;;;5022278;28;20236;-75
2022/01/05 07:18:48;;;;;;;12.40;4.45;;;5.90;81.00;;;;;;5010489;28;20566;-75
2022/01/05 07:21:16;;;;;;;9.38;5.45;;;5.90;80.20;;;;;;5021406;28;20193;-73
2022/01/05 07:23:44;;;;;;;9.23;3.55;;;5.80;80.50;;;;;;5021823;28;20208;-74
2022/01/05 07:26:13;;;;;;;6.15;3.00;;;5.80;80.30;;;;;;5021833;28;20201;-75
2022/01/05 07:28:41;;;;;;;11.88;3.10;;;5.80;80.00;;;;;;5020830;28;20291;-72
2022/01/05 07:31:09;;;;;;;5.95;2.90;;;5.70;79.60;;;;;;5025555;28;20233;-72
2022/01/05 07:33:38;;;;;;;8.98;3.55;;;5.70;80.30;;;;;;5024412;28;20197;-72
2022/01/05 07:36:06;;;;;;;12.52;2.90;;;5.70;80.00;;;;;;5017203;28;20263;-72
2022/01/05 07:38:33;;;;;;;8.45;3.28;;;5.60;79.90;;;;;;5022565;28;20232;-72
2022/01/05 07:41:01;;;;;;;6.85;2.95;;;5.60;80.30;;;;;;5024502;28;20217;-73
2022/01/05 07:43:31;;;;;;;10.70;3.20;;;5.60;80.00;;;;;;5020779;28;20946;-74
2022/01/05 07:45:59;;;;;;;6.57;3.35;;;5.60;79.90;;;;;;5022375;28;20229;-76
2022/01/05 07:48:27;;;;;;;12.57;3.53;;;5.60;80.00;;;;;;5024823;28;20288;-74
2022/01/05 07:50:55;;;;;;;7.53;3.15;;;5.60;79.80;;;;;;5023046;28;20225;-76
2022/01/05 07:53:23;;;;;;;5.88;2.80;;;5.60;80.00;;;;;;5007990;28;20208;-75
2022/01/05 07:55:51;;;;;;;7.88;3.03;;;5.60;79.90;;;;;;5008060;28;20217;-76
2022/01/05 07:58:20;;;;;;;9.35;3.40;;;5.60;79.60;;;;;;5026208;28;20201;-75
2022/01/05 08:00:49;;;;;;;7.22;3.58;;;5.70;79.80;;;;;;5021126;28;20240;-75
2022/01/05 08:03:17;;;;;;;5.85;3.38;;;5.70;79.80;;;;;;5022329;28;20204;-75
2022/01/05 08:06:06;;;;;;;5.53;2.60;;;5.60;79.70;;;;;;5019062;28;20291;-73
2022/01/05 08:08:34;;;;;;;6.40;2.60;;;5.60;79.60;;;;;;5002016;28;20205;-73
2022/01/05 08:11:02;;;;;;;5.63;3.20;;;5.50;79.60;;;;;;5002437;28;20230;-73
2022/01/05 08:13:30;;;;;;;5.68;2.90;;;5.50;79.80;;;;;;5018384;28;20209;-73
2022/01/05 08:15:59;;;;;;;9.30;2.63;;;5.40;79.20;;;;;;5000692;28;20938;-74
2022/01/05 08:18:28;;;;;;;6.75;2.40;;;5.40;79.60;;;;;;5017727;28;20205;-76
2022/01/05 08:20:56;;;;;;;4.60;2.70;;;5.30;79.30;;;;;;5000665;28;20236;-74
2022/01/05 08:23:24;;;;;;;7.65;2.50;;;5.30;79.30;;;;;;5018481;28;20216;-74
2022/01/05 08:25:53;;;;;;;6.57;2.60;;;5.20;79.30;;;;;;5018307;28;20704;-75
2022/01/05 08:28:22;;;;;;;10.35;2.75;;;5.20;79.40;;;;;;5000290;28;20201;-72
2022/01/05 08:30:50;;;;;;;6.60;3.00;;;5.20;79.40;;;;;;5017878;28;20241;-72
2022/01/05 08:33:19;;;;;;;4.25;2.58;;;5.20;79.40;;;;;;5009396;28;20267;-72
2022/01/05 08:35:48;;;;;;;5.78;2.38;;;5.20;79.20;;;;;;5003799;28;20627;-74
2022/01/05 08:38:17;;;;;;;6.53;2.60;;;5.20;79.20;;;;;;5023351;28;20209;-74
2022/01/05 08:40:45;;;;;;;8.95;2.85;;;5.10;79.10;;;;;;5004781;28;20233;-74
2022/01/05 08:43:15;;;;;;;4.80;2.33;;;5.10;78.90;;;;;;5019218;28;20213;-73
2022/01/05 08:45:44;;;;;;;9.75;3.63;;;5.10;78.90;;;;;;5018634;28;20252;-74
2022/01/05 08:48:15;;;;;;;8.00;2.45;;;5.10;79.30;;;;;;5022315;28;20670;-74
2022/01/05 08:50:45;;;;;;;6.75;2.75;;;5.10;79.40;;;;;;5022209;28;20236;-73
2022/01/05 08:53:13;;;;;;;6.50;2.63;;;5.20;79.30;;;;;;5022849;28;20205;-74
2022/01/05 08:55:45;;;;;;;5.47;2.30;;;5.20;78.80;;;;;;5019382;28;20208;-74
2022/01/05 08:58:15;;;;;;;8.10;2.08;;;5.20;79.10;;;;;;5019648;28;20267;-73
2022/01/05 09:00:43;;;;;;;6.80;3.20;;;5.30;79.10;;;;;;5023464;28;20244;-73
2022/01/05 09:03:14;;;;;;;5.47;2.13;;;5.30;79.00;;;;;;5022391;28;20610;-73
2022/01/05 09:05:42;;;;;;;4.88;2.20;;;5.30;78.90;;;;;;5021121;28;20205;-73
2022/01/05 09:08:12;;;;;;;11.00;2.60;;;5.30;78.00;;;;;;5021961;28;20205;-73
2022/01/05 09:10:40;;;;;;;6.22;2.00;;;5.30;78.30;;;;;;5024478;28;20237;-74
2022/01/05 09:13:10;;;;;;;6.25;2.20;;;5.30;78.60;;;;;;5021344;28;20210;-73
2022/01/05 09:15:40;;;;;;;4.13;2.10;;;5.40;78.20;;;;;;5008255;28;20231;-74
2022/01/05 09:18:09;;;;;;;8.93;2.20;;;5.40;78.30;;;;;;5022812;28;20189;-74
2022/01/05 09:20:37;;;;;;;6.30;2.85;;;5.40;78.00;;;;;;5025108;28;20221;-74
2022/01/05 09:23:05;;;;;;;4.30;2.03;;;5.40;78.30;;;;;;5022990;28;20205;-74
2022/01/05 09:25:34;;;;;;;8.15;2.42;;;5.50;77.80;;;;;;5021311;28;20205;-74
2022/01/05 09:28:02;;;;;;;6.68;2.60;;;5.50;77.00;;;;;;5024098;28;20201;-74
2022/01/05 09:30:30;;;;;;;8.50;2.38;;;5.50;77.50;;;;;;5023053;28;21459;-74
2022/01/05 09:32:58;;;;;;;8.93;2.35;;;5.50;77.70;;;;;;5019637;28;20301;-74
2022/01/05 09:35:27;;;;;;;9.88;2.55;;;5.50;77.20;;;;;;5005320;28;20213;-74
2022/01/05 09:38:08;;;;;;;9.52;2.95;;;5.50;76.40;;;;;;5000408;28;20230;-73
2022/01/05 09:43:24;;;;;;;5.93;2.60;;;5.50;76.80;;;;;;5020190;28;20259;-74
2022/01/05 09:45:58;;;;;;;9.55;2.35;;;5.40;76.40;;;;;;5022487;28;20229;-74
2022/01/05 09:48:44;;;;;;;6.30;2.92;;;5.30;75.10;;;;;;5008168;28;20204;-74
2022/01/05 09:51:18;;;;;;;6.80;2.40;;;5.30;76.30;;;;;;5017089;28;20677;-74
2022/01/05 09:53:48;;;;;;;8.07;2.42;;;5.30;76.50;;;;;;5018814;28;20579;-74
2022/01/05 09:56:35;;;;;;;7.22;2.83;;;5.30;76.60;;;;;;5024121;28;20246;-72
2022/01/05 09:59:04;;;;;;;8.05;3.40;;;5.40;76.50;;;;;;5020212;28;20229;-73
2022/01/05 10:01:35;;;;;;;8.40;2.80;;;5.40;76.60;;;;;;5022335;28;20720;-73
2022/01/05 10:04:04;;;;;;;6.78;3.22;;;5.40;76.10;;;;;;5020144;28;20220;-73
2022/01/05 10:06:34;;;;;;;8.75;2.47;;;5.30;76.20;;;;;;5016877;28;20205;-72
2022/01/05 10:09:02;;;;;;;22.25;3.88;;;5.30;75.70;;;;;;5018859;28;20236;-72
2022/01/05 10:11:30;;;;;;;8.50;3.40;;;5.30;75.90;;;;;;5000829;28;20209;-77
2022/01/05 10:14:00;;;;;;;8.90;3.00;;;5.30;76.10;;;;;;5008832;28;20206;-74
2022/01/05 10:16:28;;;;;;;8.85;3.42;;;5.40;76.30;;;;;;5018983;28;20229;-74
2022/01/05 10:18:56;;;;;;;6.03;2.33;;;5.40;75.40;;;;;;5020000;28;20594;-74
2022/01/05 10:21:24;;;;;;;6.85;2.63;;;5.40;75.70;;;;;;5022562;28;20275;-74
2022/01/05 10:23:53;;;;;;;10.85;2.72;;;5.40;75.50;;;;;;5003196;28;20217;-73
2022/01/05 10:26:27;;;;;;;10.02;3.55;;;5.40;75.80;;;;;;5018711;28;20213;-73
2022/01/05 10:28:58;;;;;;;10.10;3.25;;;5.40;75.90;;;;;;5009031;28;20627;-73
2022/01/05 10:31:30;;;;;;;11.23;2.90;;;5.50;76.00;;;;;;5017700;28;20241;-73
2022/01/05 10:34:00;;;;;;;10.23;3.85;;;5.50;75.90;;;;;;5017454;28;20214;-73
2022/01/05 10:36:44;;;;;;;9.27;2.85;;;5.50;75.20;;;;;;5018304;28;20882;-73
2022/01/05 10:39:12;;;;;;;7.05;2.90;;;5.50;75.60;;;;;;5018508;28;20229;-73
2022/01/05 10:41:46;;;;;;;7.88;3.22;;;5.50;75.40;;;;;;5016996;28;20563;-74
2022/01/05 10:44:19;;;;;;;9.45;3.00;;;5.50;74.90;;;;;;5024594;28;20270;-73
2022/01/05 10:46:51;;;;;;;8.40;3.00;;;5.50;74.90;;;;;;5010959;28;20458;-72
2022/01/05 10:49:26;;;;;;;10.52;3.47;;;5.40;73.70;;;;;;5027474;28;20300;-72
2022/01/05 10:51:55;;;;;;;9.40;2.75;;;5.40;75.00;;;;;;5021229;28;20689;-72
2022/01/05 10:54:25;;;;;;;10.45;3.15;;;5.40;74.90;;;;;;5019467;28;20205;-72
2022/01/05 10:56:54;;;;;;;10.57;2.80;;;5.50;75.20;;;;;;5017414;28;20197;-72
2022/01/05 10:59:35;;;;;;;20.55;3.17;;;5.50;74.90;;;;;;5000562;28;20229;-72
2022/01/05 11:02:25;;;;;;;9.27;2.58;;;5.50;74.60;;;;;;5020497;28;20665;-72
2022/01/05 11:04:58;;;;;;;17.45;3.10;;;5.50;74.50;;;;;;5022752;28;20607;-73
2022/01/05 11:07:29;;;;;;;9.52;3.15;;;5.50;74.60;;;;;;5019586;28;20208;-72
2022/01/05 11:09:59;;;;;;;8.93;3.28;;;5.50;74.60;;;;;;5019166;28;20243;-73
2022/01/05 11:12:35;;;;;;;12.88;2.97;;;5.50;74.00;;;;;;5020166;28;20201;-72
2022/01/05 11:15:20;;;;;;;8.70;2.55;;;5.50;74.60;;;;;;5018423;28;20200;-73
2022/01/05 11:18:10;;;;;;;12.52;4.22;;;5.50;74.00;;;;;;5001444;28;20233;-73
2022/01/05 11:20:42;;;;;;;7.82;2.70;;;5.40;74.10;;;;;;4985513;28;20241;-73
2022/01/05 11:23:12;;;;;;;9.60;3.00;;;5.40;74.20;;;;;;5001413;28;20679;-73
2022/01/05 11:25:42;;;;;;;5.93;2.90;;;5.40;74.00;;;;;;4998031;28;20214;-73
2022/01/05 11:28:10;;;;;;;6.88;3.22;;;5.40;74.10;;;;;;4980208;28;20689;-73
2022/01/05 11:30:38;;;;;;;9.00;3.53;;;5.40;74.10;;;;;;5002394;28;20283;-73
2022/01/05 11:33:06;;;;;;;7.50;2.95;;;5.40;74.10;;;;;;5016634;28;20204;-73
2022/01/05 11:35:36;;;;;;;12.65;4.75;;;5.50;74.00;;;;;;5018251;28;20205;-73
2022/01/05 11:38:05;;;;;;;10.57;3.45;;;5.40;73.60;;;;;;5017748;28;20229;-72
2022/01/05 11:40:36;;;;;;;13.13;3.83;;;5.40;73.60;;;;;;5021106;28;20217;-72
2022/01/05 11:43:07;;;;;;;7.35;2.90;;;5.40;73.60;;;;;;5022064;28;20670;-74
2022/01/05 11:45:37;;;;;;;6.35;2.72;;;5.40;73.70;;;;;;5020893;28;20236;-73
2022/01/05 11:48:15;;;;;;;13.35;3.72;;;5.40;73.20;;;;;;5021647;28;20304;-72
2022/01/05 11:50:47;;;;;;;10.98;2.83;;;5.40;73.80;;;;;;5017915;28;20224;-73
2022/01/05 11:53:17;;;;;;;10.57;3.50;;;5.40;73.50;;;;;;5019400;28;20199;-72
2022/01/05 11:56:15;;;;;;;7.57;3.55;;;5.40;73.30;;;;;;5019292;28;20674;-72
2022/01/05 11:58:56;;;;;;;10.48;3.10;;;5.40;73.60;;;;;;5001870;28;20233;-72
2022/01/05 12:01:36;;;;;;;9.57;3.60;;;5.40;73.80;;;;;;5018797;28;20237;-70
2022/01/05 12:04:14;;;;;;;6.72;3.25;;;5.40;73.20;;;;;;5016935;28;20227;-70
2022/01/05 12:07:07;;;;;;;7.75;2.75;;;5.40;73.00;;;;;;5017802;28;20915;-70
2022/01/05 12:09:41;;;;;;;8.93;3.35;;;5.40;73.30;;;;;;5017064;28;20313;-70
2022/01/05 12:12:31;;;;;;;7.88;2.60;;;5.40;72.80;;;;;;5019201;28;20704;-69
2022/01/05 12:15:00;;;;;;;7.50;3.13;;;5.30;72.80;;;;;;5019850;28;20217;-72
2022/01/05 12:17:29;;;;;;;10.50;2.90;;;5.30;73.00;;;;;;5020096;28;20251;-72
2022/01/05 12:20:14;;;;;;;9.05;2.65;;;5.30;72.80;;;;;;5020034;28;20235;-71
2022/01/05 12:22:44;;;;;;;10.98;2.85;;;5.40;73.00;;;;;;5023647;28;20220;-70
2022/01/05 12:25:22;;;;;;;10.05;2.70;;;5.30;72.70;;;;;;5028625;28;20193;-70
2022/01/05 12:27:58;;;;;;;11.20;3.17;;;5.40;73.10;;;;;;5028482;28;20209;-71
2022/01/05 12:30:37;;;;;;;8.65;2.88;;;5.30;72.50;;;;;;5026695;28;20251;-69
2022/01/05 12:33:12;;;;;;;7.05;2.70;;;5.30;72.50;;;;;;5024480;28;20202;-70
2022/01/05 12:36:00;;;;;;;6.95;3.30;;;5.30;73.10;;;;;;5004313;28;20212;-70
2022/01/05 12:38:42;;;;;;;8.13;2.50;;;5.30;73.10;;;;;;5023083;28;20225;-71
2022/01/05 12:41:38;;;;;;;8.07;3.03;;;5.40;73.10;;;;;;5016603;28;20216;-72
2022/01/05 12:44:36;;;;;;;7.50;2.70;;;5.40;73.20;;;;;;4977128;28;20226;-71
2022/01/05 12:47:10;;;;;;;11.25;2.50;;;5.40;73.30;;;;;;4983738;28;20368;-70
2022/01/05 12:49:39;;;;;;;7.68;2.42;;;5.50;73.30;;;;;;5009444;28;20244;-70
2022/01/05 12:52:12;;;;;;;6.60;2.53;;;5.50;72.70;;;;;;5022228;28;20236;-70
2022/01/05 12:54:44;;;;;;;8.68;3.10;;;5.50;73.10;;;;;;5018326;28;20304;-71
2022/01/05 12:57:17;;;;;;;7.05;2.75;;;5.60;73.10;;;;;;5019987;28;20205;-71
2022/01/05 12:59:50;;;;;;;9.18;2.78;;;5.60;73.00;;;;;;5022666;28;20245;-70
2022/01/05 13:02:23;;;;;;;8.00;2.58;;;5.50;72.70;;;;;;5026457;28;20239;-70
2022/01/05 13:04:53;;;;;;;7.93;2.30;;;5.50;72.40;;;;;;5029022;28;20208;-71
2022/01/05 13:07:23;;;;;;;10.60;2.47;;;5.50;72.70;;;;;;5028606;28;20216;-71
2022/01/05 13:09:54;;;;;;;7.55;2.50;;;5.50;72.50;;;;;;5030218;28;20218;-70
2022/01/05 13:12:25;;;;;;;5.85;2.65;;;5.50;72.70;;;;;;5024906;28;20538;-72
2022/01/05 13:14:57;;;;;;;10.57;2.22;;;5.40;72.70;;;;;;5021070;28;20209;-70